createdAt,value
2022-11-15T00:00:48.007Z,10.88
2022-11-15T00:03:18.675Z,9.98
2022-11-15T00:05:46.123Z,10.10
2022-11-15T00:08:13.627Z,9.73
2022-11-15T00:10:41.016Z,8.20
2022-11-15T00:13:08.805Z,9.48
2022-11-15T00:15:37.093Z,9.02
2022-11-15T00:18:04.740Z,9.40
2022-11-15T00:20:31.899Z,8.88
2022-11-15T00:22:58.921Z,9.80
2022-11-15T00:25:26.018Z,9.07
2022-11-15T00:27:56.542Z,9.38
2022-11-15T00:30:23.623Z,8.85
2022-11-15T00:32:50.850Z,9.30
2022-11-15T00:35:18.075Z,9.38
2022-11-15T00:37:45.135Z,8.68
2022-11-15T00:40:13.841Z,9.55
2022-11-15T00:42:40.972Z,9.05
2022-11-15T00:45:08.323Z,9.32
2022-11-15T00:47:35.472Z,10.25
2022-11-15T00:50:02.592Z,9.52
2022-11-15T00:52:29.657Z,9.05
2022-11-15T00:54:56.698Z,8.60
2022-11-15T00:57:23.757Z,10.68
2022-11-15T00:59:50.831Z,9.73
2022-11-15T01:02:17.889Z,9.85
2022-11-15T01:04:45.159Z,10.20
2022-11-15T01:07:12.230Z,8.80
2022-11-15T01:09:39.331Z,9.32
2022-11-15T01:12:06.495Z,9.52
2022-11-15T01:14:33.554Z,8.90
2022-11-15T01:17:00.675Z,10.15
2022-11-15T01:19:27.837Z,9.48
2022-11-15T01:21:54.897Z,8.65
2022-11-15T01:24:22.017Z,8.80
2022-11-15T01:26:49.093Z,9.18
2022-11-15T01:29:16.227Z,8.82
2022-11-15T01:31:43.316Z,8.68
2022-11-15T01:34:10.406Z,8.73
2022-11-15T01:36:37.641Z,9.85
2022-11-15T01:39:04.784Z,8.95
2022-11-15T01:41:33.124Z,8.93
2022-11-15T01:44:19.058Z,8.77
2022-11-15T01:46:48.373Z,9.27
2022-11-15T01:49:19.619Z,9.52
2022-11-15T01:51:46.875Z,8.57
2022-11-15T01:54:16.716Z,10.23
2022-11-15T01:56:48.035Z,10.30
2022-11-15T01:59:15.700Z,9.25
2022-11-15T02:01:43.437Z,9.18
2022-11-15T02:04:16.676Z,9.05
2022-11-15T02:06:45.000Z,9.93
2022-11-15T02:09:13.320Z,9.65
2022-11-15T02:11:40.676Z,9.45
2022-11-15T02:14:08.411Z,9.38
2022-11-15T02:16:48.507Z,10.20
2022-11-15T02:19:34.120Z,11.50
2022-11-15T02:22:19.819Z,9.25
2022-11-15T02:25:05.828Z,9.98
2022-11-15T02:27:51.905Z,10.07
2022-11-15T02:30:23.276Z,9.60
2022-11-15T02:32:56.473Z,9.60
2022-11-15T02:35:36.008Z,11.18
2022-11-15T02:38:10.578Z,10.52
2022-11-15T02:40:46.707Z,10.70
2022-11-15T02:43:35.875Z,10.98
2022-11-15T02:46:10.416Z,10.10
2022-11-15T02:48:37.834Z,12.40
2022-11-15T02:51:05.095Z,11.55
2022-11-15T02:53:32.664Z,10.20
2022-11-15T02:55:59.950Z,11.90
2022-11-15T02:58:45.569Z,11.20
2022-11-15T03:01:12.667Z,11.85
2022-11-15T03:03:58.428Z,11.00
2022-11-15T03:06:37.458Z,11.07
2022-11-15T03:09:11.129Z,11.65
2022-11-15T03:11:41.657Z,11.50
2022-11-15T03:14:17.943Z,11.13
2022-11-15T03:16:53.035Z,11.68
2022-11-15T03:19:23.123Z,12.30
2022-11-15T03:21:50.844Z,11.95
2022-11-15T03:24:24.727Z,12.63
2022-11-15T03:26:55.210Z,11.57
2022-11-15T03:29:25.996Z,12.60
2022-11-15T03:31:55.685Z,12.00
2022-11-15T03:34:41.664Z,11.68
2022-11-15T03:37:08.844Z,13.35
2022-11-15T03:39:36.095Z,12.30
2022-11-15T03:42:24.161Z,11.40
2022-11-15T03:44:54.037Z,12.40
2022-11-15T03:47:41.345Z,13.80
2022-11-15T03:50:21.857Z,14.02
2022-11-15T03:52:49.916Z,13.65
2022-11-15T03:55:18.836Z,13.98
2022-11-15T03:57:46.093Z,12.40
2022-11-15T04:00:13.654Z,13.60
2022-11-15T04:02:40.707Z,14.13
2022-11-15T04:05:07.984Z,13.50
2022-11-15T04:07:35.309Z,13.43
2022-11-15T04:10:06.382Z,14.15
2022-11-15T04:12:37.597Z,15.02
2022-11-15T04:15:10.643Z,15.65
2022-11-15T04:17:40.727Z,14.88
2022-11-15T04:20:28.241Z,14.70
2022-11-15T04:23:14.768Z,13.75
2022-11-15T04:25:42.117Z,13.52
2022-11-15T04:28:09.248Z,14.13
2022-11-15T04:30:36.523Z,14.88
2022-11-15T04:33:03.643Z,15.88
2022-11-15T04:35:30.856Z,14.40
2022-11-15T04:37:58.182Z,15.40
2022-11-15T04:40:25.612Z,14.15
2022-11-15T04:42:52.671Z,13.68
2022-11-15T04:45:19.864Z,14.55
2022-11-15T04:47:47.392Z,13.27
2022-11-15T04:50:15.394Z,13.82
2022-11-15T04:52:43.303Z,14.98
2022-11-15T04:55:13.396Z,14.38
2022-11-15T04:57:40.483Z,12.68
2022-11-15T05:00:08.951Z,12.95
2022-11-15T05:02:54.599Z,14.80
2022-11-15T05:05:22.194Z,13.63
2022-11-15T05:07:49.247Z,14.50
2022-11-15T05:10:16.517Z,15.23
2022-11-15T05:12:43.619Z,13.07
2022-11-15T05:15:11.035Z,14.05
2022-11-15T05:17:38.152Z,13.85
2022-11-15T05:20:05.671Z,14.80
2022-11-15T05:22:32.852Z,13.45
2022-11-15T05:24:59.918Z,14.63
2022-11-15T05:27:26.974Z,13.13
2022-11-15T05:29:54.013Z,13.82
2022-11-15T05:32:21.249Z,13.18
2022-11-15T05:34:48.428Z,12.60
2022-11-15T05:37:15.713Z,13.45
2022-11-15T05:39:42.810Z,13.85
2022-11-15T05:42:12.159Z,13.43
2022-11-15T05:44:41.131Z,12.80
2022-11-15T05:47:10.486Z,13.32
2022-11-15T05:49:38.248Z,13.75
2022-11-15T05:52:06.868Z,12.40
2022-11-15T05:54:34.510Z,13.85
2022-11-15T05:57:01.971Z,12.88
2022-11-15T05:59:31.132Z,13.32
2022-11-15T06:01:58.412Z,14.02
2022-11-15T06:04:25.879Z,13.23
2022-11-15T06:06:53.027Z,12.93
2022-11-15T06:09:20.171Z,12.77
2022-11-15T06:11:47.235Z,13.10
2022-11-15T06:14:14.277Z,13.18
2022-11-15T06:16:41.349Z,12.55
2022-11-15T06:19:09.001Z,13.88
2022-11-15T06:21:36.121Z,12.88
2022-11-15T06:24:03.251Z,12.18
2022-11-15T06:26:30.293Z,12.02
2022-11-15T06:28:57.347Z,11.18
2022-11-15T06:31:24.596Z,13.00
2022-11-15T06:33:51.752Z,12.25
2022-11-15T06:36:19.027Z,11.88
2022-11-15T06:38:46.695Z,12.95
2022-11-15T06:41:14.466Z,13.07
2022-11-15T06:43:41.921Z,12.15
2022-11-15T06:46:09.188Z,12.57
2022-11-15T06:48:37.204Z,11.00
2022-11-15T06:51:04.808Z,11.93
2022-11-15T06:53:32.649Z,10.95
2022-11-15T06:56:01.485Z,11.38
2022-11-15T06:58:28.829Z,12.45
2022-11-15T07:00:59.747Z,11.20
2022-11-15T07:06:02.727Z,10.50
2022-11-15T07:08:32.806Z,10.75
2022-11-15T07:11:01.354Z,11.95
2022-11-15T07:13:29.315Z,11.10
2022-11-15T07:15:56.699Z,11.02
2022-11-15T07:18:23.743Z,11.40
2022-11-15T07:20:50.773Z,10.63
2022-11-15T07:23:17.806Z,10.38
2022-11-15T07:25:45.039Z,10.63
2022-11-15T07:28:12.414Z,10.63
2022-11-15T07:30:44.080Z,10.23
2022-11-15T07:33:12.338Z,10.48
2022-11-15T07:35:39.456Z,10.20
2022-11-15T07:38:06.569Z,10.20
2022-11-15T07:40:34.025Z,9.82
2022-11-15T07:43:05.474Z,10.40
2022-11-15T07:45:34.421Z,11.10
2022-11-15T07:48:01.894Z,11.38
2022-11-15T07:50:32.099Z,10.50
2022-11-15T07:53:00.519Z,10.30
2022-11-15T07:55:29.111Z,9.38
2022-11-15T07:58:01.765Z,9.55
2022-11-15T08:00:28.888Z,9.15
2022-11-15T08:03:02.742Z,9.70
2022-11-15T08:05:29.846Z,9.85
2022-11-15T08:07:57.641Z,8.95
2022-11-15T08:10:24.972Z,9.90
2022-11-15T08:13:05.751Z,10.82
2022-11-15T08:15:33.707Z,9.70
2022-11-15T08:18:01.822Z,9.65
2022-11-15T08:20:32.832Z,9.60
2022-11-15T08:23:00.975Z,9.40
2022-11-15T08:25:29.283Z,10.00
2022-11-15T08:27:57.462Z,10.40
2022-11-15T08:30:25.207Z,9.77
2022-11-15T08:32:52.920Z,10.45
2022-11-15T08:35:24.772Z,8.95
2022-11-15T08:37:54.951Z,10.02
2022-11-15T08:40:22.963Z,9.13
2022-11-15T08:42:50.190Z,9.80
2022-11-15T08:45:17.324Z,9.98
2022-11-15T08:47:45.679Z,9.40
2022-11-15T08:50:14.492Z,9.30
2022-11-15T08:52:41.603Z,9.30
2022-11-15T08:55:08.985Z,8.60
2022-11-15T08:57:36.057Z,8.85
2022-11-15T09:00:03.201Z,8.65
2022-11-15T09:02:30.258Z,8.50
2022-11-15T09:04:57.376Z,8.48
2022-11-15T09:07:25.765Z,9.48
2022-11-15T09:09:52.932Z,9.13
2022-11-15T09:12:20.026Z,8.65
2022-11-15T09:14:47.128Z,8.60
2022-11-15T09:17:14.191Z,8.05
2022-11-15T09:19:41.251Z,8.60
2022-11-15T09:22:08.949Z,8.68
2022-11-15T09:24:36.646Z,8.80
2022-11-15T09:27:04.359Z,7.78
2022-11-15T09:29:31.401Z,8.05
2022-11-15T09:31:58.446Z,7.38
2022-11-15T09:34:25.506Z,7.63
2022-11-15T09:36:52.553Z,6.75
2022-11-15T09:39:19.659Z,7.85
2022-11-15T09:41:50.166Z,6.85
2022-11-15T09:44:36.037Z,6.10
2022-11-15T09:47:35.555Z,6.93
2022-11-15T09:50:03.499Z,6.72
2022-11-15T09:52:30.595Z,5.80
2022-11-15T09:54:57.716Z,5.80
2022-11-15T09:57:41.027Z,4.75
2022-11-15T10:03:16.108Z,5.32
2022-11-15T10:05:44.911Z,4.65
2022-11-15T10:08:24.747Z,4.57
2022-11-15T10:11:15.895Z,4.65
2022-11-15T10:13:43.539Z,4.28
2022-11-15T10:16:28.991Z,4.68
2022-11-15T10:19:14.638Z,4.20
2022-11-15T10:21:44.728Z,3.55
2022-11-15T10:24:16.563Z,3.25
2022-11-15T10:29:10.654Z,3.33
2022-11-15T10:31:41.002Z,4.05
2022-11-15T10:34:19.719Z,3.50
2022-11-15T10:36:57.063Z,3.40
2022-11-15T10:39:24.270Z,3.15
2022-11-15T10:41:51.583Z,2.83
2022-11-15T10:44:21.397Z,3.85
2022-11-15T10:47:17.971Z,3.15
2022-11-15T10:49:55.321Z,3.00
2022-11-15T10:52:23.227Z,2.72
2022-11-15T10:54:53.170Z,2.30
2022-11-15T10:57:21.913Z,2.75
2022-11-15T10:59:50.503Z,3.67
2022-11-15T11:02:36.275Z,3.17
2022-11-15T11:05:04.262Z,3.28
2022-11-15T11:07:32.745Z,2.60
2022-11-15T11:10:49.956Z,2.85
2022-11-15T11:13:25.507Z,1.90
2022-11-15T11:15:59.432Z,1.90
2022-11-15T11:18:33.324Z,2.20
2022-11-15T11:21:02.780Z,2.10
2022-11-15T11:23:30.130Z,2.20
2022-11-15T11:26:06.577Z,1.88
2022-11-15T11:28:47.619Z,2.10
2022-11-15T11:31:29.861Z,2.00
2022-11-15T11:34:15.155Z,1.90
2022-11-15T11:37:05.245Z,1.50
2022-11-15T11:39:35.103Z,2.03
2022-11-15T11:42:11.153Z,1.40
2022-11-15T11:44:58.486Z,1.50
2022-11-15T11:47:29.031Z,1.95
2022-11-15T11:50:00.948Z,2.00
2022-11-15T11:55:07.596Z,1.40
2022-11-15T11:57:34.842Z,1.55
2022-11-15T12:00:17.677Z,1.63
2022-11-15T12:02:50.710Z,1.45
2022-11-15T12:05:18.075Z,1.48
2022-11-15T12:07:46.866Z,1.48
2022-11-15T12:10:20.996Z,1.80
2022-11-15T12:13:06.869Z,1.58
2022-11-15T12:15:38.339Z,1.10
2022-11-15T12:18:06.200Z,1.50
2022-11-15T12:20:38.181Z,1.30
2022-11-15T12:23:07.852Z,1.40
2022-11-15T12:25:55.676Z,2.20
2022-11-15T12:29:06.838Z,1.20
2022-11-15T12:31:38.197Z,1.20
2022-11-15T12:34:17.041Z,1.10
2022-11-15T12:36:47.887Z,1.10
2022-11-15T12:39:15.628Z,1.20
2022-11-15T12:41:44.084Z,1.40
2022-11-15T12:44:34.111Z,1.65
2022-11-15T12:47:03.408Z,1.42
2022-11-15T12:49:44.800Z,1.35
2022-11-15T12:52:12.028Z,1.30
2022-11-15T12:54:42.072Z,1.15
2022-11-15T12:57:09.193Z,1.10
2022-11-15T12:59:53.095Z,1.17
2022-11-15T13:02:40.722Z,1.10
2022-11-15T13:05:19.600Z,1.00
2022-11-15T13:07:46.710Z,1.00
2022-11-15T13:10:13.772Z,1.30
2022-11-15T13:12:46.996Z,1.20
2022-11-15T13:15:14.134Z,0.90
2022-11-15T13:17:48.137Z,1.00
2022-11-15T13:20:15.505Z,1.10
2022-11-15T13:22:51.657Z,0.90
2022-11-15T13:25:40.928Z,1.10
2022-11-15T13:28:17.207Z,1.00
2022-11-15T13:30:50.118Z,1.13
2022-11-15T13:33:17.153Z,0.85
2022-11-15T13:35:48.260Z,0.68
2022-11-15T13:38:21.669Z,1.20
2022-11-15T13:40:48.718Z,0.70
2022-11-15T13:43:25.217Z,0.50
2022-11-15T13:46:11.032Z,0.60
2022-11-15T13:48:38.387Z,0.63
2022-11-15T13:51:08.167Z,0.52
2022-11-15T13:53:35.966Z,0.63
2022-11-15T13:56:04.550Z,0.60
2022-11-15T13:58:32.297Z,0.80
2022-11-15T14:01:01.430Z,0.73
2022-11-15T14:03:32.970Z,0.60
2022-11-15T14:06:11.413Z,0.52
2022-11-15T14:08:38.596Z,0.70
2022-11-15T14:11:10.231Z,0.75
2022-11-15T14:13:37.557Z,1.10
2022-11-15T14:16:21.701Z,1.00
2022-11-15T14:18:50.546Z,0.98
2022-11-15T14:21:18.335Z,0.70
2022-11-15T14:23:45.581Z,1.52
2022-11-15T14:26:48.255Z,0.90
2022-11-15T14:29:24.331Z,0.93
2022-11-15T14:31:51.429Z,0.90
2022-11-15T14:34:18.553Z,1.50
2022-11-15T14:36:45.659Z,1.60
2022-11-15T14:39:12.754Z,3.78
2022-11-15T14:41:40.015Z,1.33
2022-11-15T14:44:07.583Z,1.27
2022-11-15T14:46:34.670Z,1.50
2022-11-15T14:49:01.796Z,1.33
2022-11-15T14:51:28.917Z,1.95
2022-11-15T14:53:56.339Z,2.10
2022-11-15T14:56:23.387Z,4.63
2022-11-15T14:58:50.481Z,10.27
2022-11-15T15:01:21.083Z,3.13
2022-11-15T15:03:48.236Z,3.88
2022-11-15T15:06:18.202Z,4.30
2022-11-15T15:08:46.473Z,5.60
2022-11-15T15:11:16.706Z,4.70
2022-11-15T15:13:44.458Z,7.10
2022-11-15T15:16:11.697Z,3.83
2022-11-15T15:18:38.844Z,7.80
2022-11-15T15:21:22.318Z,4.55
2022-11-15T15:23:50.521Z,13.60
2022-11-15T15:26:17.971Z,3.50
2022-11-15T15:28:45.107Z,5.00
2022-11-15T15:31:12.339Z,3.40
2022-11-15T15:33:39.563Z,3.40
2022-11-15T15:36:06.869Z,2.88
2022-11-15T15:38:34.317Z,2.70
2022-11-15T15:41:03.949Z,2.63
2022-11-15T15:43:31.145Z,2.60
2022-11-15T15:45:58.350Z,3.03
2022-11-15T15:48:25.614Z,2.80
2022-11-15T15:50:52.804Z,2.70
2022-11-15T15:53:19.885Z,2.45
2022-11-15T15:55:47.005Z,3.72
2022-11-15T15:58:14.114Z,3.17
2022-11-15T16:00:41.618Z,5.15
2022-11-15T16:03:08.785Z,5.07
2022-11-15T16:05:36.086Z,3.10
2022-11-15T16:08:03.485Z,3.08
2022-11-15T16:10:32.437Z,4.60
2022-11-15T16:12:59.705Z,4.80
2022-11-15T16:15:28.546Z,3.25
2022-11-15T16:17:56.936Z,3.22
2022-11-15T16:20:43.730Z,6.50
2022-11-15T16:23:11.925Z,6.28
2022-11-15T16:25:41.565Z,4.00
2022-11-15T16:28:19.236Z,5.25
2022-11-15T16:30:46.551Z,4.45
2022-11-15T16:33:13.806Z,2.70
2022-11-15T16:35:41.081Z,2.42
2022-11-15T16:38:10.146Z,2.28
2022-11-15T16:40:37.254Z,1.50
2022-11-15T16:43:06.447Z,1.70
2022-11-15T16:45:35.469Z,1.58
2022-11-15T16:48:02.743Z,1.65
2022-11-15T16:50:39.839Z,6.47
2022-11-15T16:53:07.258Z,2.90
2022-11-15T16:55:34.345Z,2.67
2022-11-15T16:58:02.438Z,1.40
2022-11-15T17:00:29.638Z,2.10
2022-11-15T17:02:56.876Z,1.60
2022-11-15T17:05:24.521Z,9.35
2022-11-15T17:07:54.228Z,12.75
2022-11-15T17:10:22.609Z,15.40
2022-11-15T17:12:50.273Z,6.47
2022-11-15T17:15:17.579Z,4.47
2022-11-15T17:17:45.444Z,4.28
2022-11-15T17:20:16.868Z,6.82
2022-11-15T17:22:44.085Z,9.63
2022-11-15T17:25:11.279Z,6.07
2022-11-15T17:27:38.454Z,3.90
2022-11-15T17:30:06.373Z,3.60
2022-11-15T17:32:33.561Z,2.15
2022-11-15T17:35:00.611Z,2.90
2022-11-15T17:37:27.676Z,2.20
2022-11-15T17:39:54.780Z,1.80
2022-11-15T17:42:21.837Z,1.02
2022-11-15T17:44:48.896Z,14.30
2022-11-15T17:47:16.039Z,1.38
2022-11-15T17:49:43.200Z,1.27
2022-11-15T17:52:10.528Z,1.65
2022-11-15T17:54:37.601Z,1.10
2022-11-15T17:57:04.941Z,1.38
2022-11-15T17:59:32.047Z,1.90
2022-11-15T18:01:59.326Z,1.13
2022-11-15T18:04:28.333Z,0.90
2022-11-15T18:06:56.459Z,1.00
2022-11-15T18:09:24.735Z,0.80
2022-11-15T18:11:53.480Z,0.70
2022-11-15T18:14:20.634Z,0.98
2022-11-15T18:16:47.765Z,1.13
2022-11-15T18:19:15.161Z,1.00
2022-11-15T18:21:59.193Z,0.90
2022-11-15T18:24:29.233Z,1.00
2022-11-15T18:26:56.511Z,2.47
2022-11-15T18:29:24.644Z,1.08
2022-11-15T18:31:55.512Z,0.90
2022-11-15T18:34:23.807Z,0.90
2022-11-15T18:36:52.325Z,0.80
2022-11-15T18:39:19.493Z,1.50
2022-11-15T18:41:47.200Z,1.25
2022-11-15T18:44:15.592Z,17.67
2022-11-15T18:46:42.902Z,2.47
2022-11-15T18:49:10.596Z,0.82
2022-11-15T18:51:41.477Z,0.95
2022-11-15T18:54:10.075Z,3.17
2022-11-15T18:56:37.631Z,3.03
2022-11-15T18:59:05.129Z,1.63
2022-11-15T19:01:36.341Z,2.40
2022-11-15T19:04:07.868Z,2.38
2022-11-15T19:06:37.658Z,1.20
2022-11-15T19:09:04.795Z,1.60
2022-11-15T19:11:35.647Z,1.02
2022-11-15T19:14:04.237Z,2.28
2022-11-15T19:16:33.358Z,2.55
2022-11-15T19:19:02.071Z,1.40
2022-11-15T19:21:31.158Z,2.88
2022-11-15T19:23:58.933Z,3.92
2022-11-15T19:26:26.317Z,1.35
2022-11-15T19:28:54.674Z,0.98
2022-11-15T19:31:23.537Z,1.20
2022-11-15T19:33:51.164Z,1.55
2022-11-15T19:36:23.110Z,1.50
2022-11-15T19:41:18.296Z,1.17
2022-11-15T19:43:47.960Z,1.38
2022-11-15T19:46:15.717Z,1.60
2022-11-15T19:48:43.101Z,1.55
2022-11-15T19:51:14.681Z,1.30
2022-11-15T19:53:42.534Z,2.05
2022-11-15T19:56:13.793Z,2.30
2022-11-15T19:58:41.418Z,1.70
2022-11-15T20:01:09.752Z,1.80
2022-11-15T20:03:37.102Z,1.80
2022-11-15T20:06:05.145Z,1.40
2022-11-15T20:08:32.853Z,1.50
2022-11-15T20:11:00.731Z,1.55
2022-11-15T20:13:28.478Z,1.30
2022-11-15T20:15:55.665Z,1.15
2022-11-15T20:18:23.266Z,1.42
2022-11-15T20:20:50.353Z,1.85
2022-11-15T20:23:17.969Z,2.28
2022-11-15T20:25:46.397Z,20.45
2022-11-15T20:28:17.701Z,5.72
2022-11-15T20:30:45.243Z,2.45
2022-11-15T20:33:12.969Z,2.22
2022-11-15T20:35:40.436Z,2.40
2022-11-15T20:38:11.223Z,1.65
2022-11-15T20:40:39.411Z,2.10
2022-11-15T20:43:06.932Z,1.65
2022-11-15T20:45:34.061Z,2.05
2022-11-15T20:48:01.131Z,1.75
2022-11-15T20:50:42.095Z,1.65
2022-11-15T20:53:10.992Z,3.67
2022-11-15T20:55:47.860Z,3.67
2022-11-15T20:58:15.722Z,3.10
2022-11-15T21:00:43.277Z,2.28
2022-11-15T21:03:10.502Z,2.50
2022-11-15T21:05:41.595Z,2.53
2022-11-15T21:08:09.127Z,2.30
2022-11-15T21:10:54.812Z,2.00
2022-11-15T21:13:22.182Z,2.00
2022-11-15T21:15:49.291Z,2.45
2022-11-15T21:18:16.455Z,9.25
2022-11-15T21:20:43.904Z,9.30
2022-11-15T21:23:11.032Z,2.78
2022-11-15T21:25:38.104Z,3.97
2022-11-15T21:28:05.721Z,2.85
2022-11-15T21:30:32.884Z,3.63
2022-11-15T21:32:59.933Z,2.97
2022-11-15T21:35:27.043Z,3.22
2022-11-15T21:37:57.019Z,3.08
2022-11-15T21:40:24.909Z,2.47
2022-11-15T21:42:52.027Z,3.70
2022-11-15T21:45:19.162Z,2.95
2022-11-15T21:47:47.002Z,3.05
2022-11-15T21:50:14.430Z,2.63
2022-11-15T21:52:41.636Z,2.40
2022-11-15T21:55:09.138Z,2.53
2022-11-15T21:57:36.184Z,2.10
2022-11-15T22:00:21.938Z,2.10
2022-11-15T22:02:49.017Z,2.38
2022-11-15T22:05:16.186Z,2.42
2022-11-15T22:07:43.260Z,2.50
2022-11-15T22:10:10.486Z,2.75
2022-11-15T22:12:38.127Z,3.08
2022-11-15T22:15:05.278Z,3.22
2022-11-15T22:17:51.144Z,2.58
2022-11-15T22:20:47.297Z,2.53
2022-11-15T22:23:05.852Z,3.42
2022-11-15T22:25:33.074Z,2.65
2022-11-15T22:28:00.135Z,3.67
2022-11-15T22:30:27.283Z,2.88
2022-11-15T22:32:54.468Z,2.92
2022-11-15T22:35:21.566Z,3.05
2022-11-15T22:37:48.961Z,2.92
2022-11-15T22:40:16.096Z,5.13
2022-11-15T22:42:43.415Z,2.97
2022-11-15T22:45:10.702Z,3.45
2022-11-15T22:47:37.957Z,3.05
2022-11-15T22:50:06.411Z,3.65
2022-11-15T22:52:36.241Z,3.05
2022-11-15T22:55:03.468Z,3.10
2022-11-15T22:57:30.708Z,3.63
2022-11-15T22:59:57.857Z,3.28
2022-11-15T23:02:27.064Z,3.53
2022-11-15T23:04:54.252Z,3.03
2022-11-15T23:07:21.466Z,2.88
2022-11-15T23:09:52.124Z,3.08
2022-11-15T23:12:58.059Z,3.17
2022-11-15T23:15:29.597Z,3.28
2022-11-15T23:18:00.349Z,3.38
2022-11-15T23:20:42.599Z,3.40
2022-11-15T23:23:10.574Z,3.70
2022-11-15T23:25:37.654Z,3.53
2022-11-15T23:28:05.345Z,3.38
2022-11-15T23:30:54.824Z,3.58
2022-11-15T23:33:40.909Z,3.85
2022-11-15T23:36:08.263Z,2.92
2022-11-15T23:38:38.503Z,3.67
2022-11-15T23:41:06.286Z,3.97
2022-11-15T23:43:33.337Z,3.47
2022-11-15T23:46:01.571Z,3.53
2022-11-15T23:48:28.677Z,3.83
2022-11-15T23:50:55.776Z,3.80
2022-11-15T23:53:22.953Z,3.45
2022-11-15T23:56:02.123Z,3.58
2022-11-15T23:58:29.198Z,4.50
